M.t. King Everest — V7DB8 — position and weather

sailwx.info

Track history (hours):
 
Tides and Currents Weather Stations Pressure Air Temp Water Temp Dewpoint Dewpoint Depression Visibility Wind Speed Wind Dir Waves Ship Positions

M.t. King Everest

Last reported at 2015-May-24 22:27 UTC. Time now 2015-May-25 15:35 UTC.
Position N 35°39' W 013°08'.

Length 181 m; draft 11 m.

Type: Ship (hazmat cat A). MMSI: 538090267.

Date/timePositionNaut miles runAvg speedWind from/ knotsBaromVisibWave heightAir tempDewpointWater temp
2015-May-24 22:27N 35°39' W 013°08'  
2015-May-18 20:29N 35°20' W 012°12'2812.2
2015-May-18 18:11N 35°48' W 012°07'5712.3
2015-May-18 13:30N 36°44' W 011°56'1212.3
2015-May-18 12:30N 36°56' W 011°53'1512.4
2015-May-18 11:19N 37°11' W 011°51'1012.6
2015-May-18 10:31N 37°21' W 011°49'1212.5
2015-May-18 09:33N 37°33' W 011°47'1612.7
2015-May-18 08:17N 37°49' W 011°44'1112.7
2015-May-18 07:28N 37°59' W 011°41'1512.3
2015-May-18 06:14N 38°14' W 011°38'  
2015-May-15 01:27N 50°25' W 001°12'1112.7
2015-May-15 00:33N 50°34' W 001°01'9 9.3
2015-May-14 23:33N 50°43' W 001°00'7 7.3
2015-May-14 22:33N 50°46' W 001°11'  
Track history (hours):
 
Tides and Currents Weather Stations Pressure Air Temp Water Temp Dewpoint Dewpoint Depression Visibility Wind Speed Wind Dir Waves Ship Positions

M.t. King Everest

Last reported at 2015-May-24 22:27 UTC. Time now 2015-May-25 15:35 UTC.
Position N 35°39' W 013°08'.

Length 181 m; draft 11 m.

Type: Ship (hazmat cat A). MMSI: 538090267.

Date/timePositionNaut miles runAvg speedWind from/ knotsBaromVisibWave heightAir tempDewpointWater temp
2015-May-24 22:27N 35°39' W 013°08'  
2015-May-18 20:29N 35°20' W 012°12'2812.2
2015-May-18 18:11N 35°48' W 012°07'5712.3
2015-May-18 13:30N 36°44' W 011°56'1212.3
2015-May-18 12:30N 36°56' W 011°53'1512.4
2015-May-18 11:19N 37°11' W 011°51'1012.6
2015-May-18 10:31N 37°21' W 011°49'1212.5
2015-May-18 09:33N 37°33' W 011°47'1612.7
2015-May-18 08:17N 37°49' W 011°44'1112.7
2015-May-18 07:28N 37°59' W 011°41'1512.3
2015-May-18 06:14N 38°14' W 011°38'  
2015-May-15 01:27N 50°25' W 001°12'1112.7
2015-May-15 00:33N 50°34' W 001°01'9 9.3
2015-May-14 23:33N 50°43' W 001°00'7 7.3
2015-May-14 22:33N 50°46' W 001°11'  

Dump ship's entire track history